sensor_id;sensor_type;location;lat;lon;timestamp;P1;durP1;ratioP1;P2;durP2;ratioP2
11039;SDS011;5573;49.592;8.662;2023-07-22T00:00:45;153.07;;;145.18;;
11039;SDS011;5573;49.592;8.662;2023-07-22T00:03:13;166.77;;;158.30;;
11039;SDS011;5573;49.592;8.662;2023-07-22T00:05:41;168.20;;;159.52;;
11039;SDS011;5573;49.592;8.662;2023-07-22T00:08:10;161.20;;;152.98;;
11039;SDS011;5573;49.592;8.662;2023-07-22T00:10:41;160.70;;;152.52;;
11039;SDS011;5573;49.592;8.662;2023-07-22T00:13:09;164.07;;;155.50;;
11039;SDS011;5573;49.592;8.662;2023-07-22T00:15:37;163.20;;;154.88;;
11039;SDS011;5573;49.592;8.662;2023-07-22T00:18:05;168.70;;;160.05;;
11039;SDS011;5573;49.592;8.662;2023-07-22T00:20:34;168.07;;;159.50;;
11039;SDS011;5573;49.592;8.662;2023-07-22T00:23:02;161.02;;;152.95;;
11039;SDS011;5573;49.592;8.662;2023-07-22T00:25:30;161.63;;;153.32;;
11039;SDS011;5573;49.592;8.662;2023-07-22T00:27:59;174.65;;;165.80;;
11039;SDS011;5573;49.592;8.662;2023-07-22T00:30:27;161.55;;;153.35;;
11039;SDS011;5573;49.592;8.662;2023-07-22T00:32:55;174.02;;;165.27;;
11039;SDS011;5573;49.592;8.662;2023-07-22T00:35:23;179.18;;;170.00;;
11039;SDS011;5573;49.592;8.662;2023-07-22T00:37:51;187.60;;;178.10;;
11039;SDS011;5573;49.592;8.662;2023-07-22T00:40:19;184.23;;;174.88;;
11039;SDS011;5573;49.592;8.662;2023-07-22T00:42:49;168.18;;;159.57;;
11039;SDS011;5573;49.592;8.662;2023-07-22T00:45:18;166.38;;;157.80;;
11039;SDS011;5573;49.592;8.662;2023-07-22T00:47:46;180.73;;;171.43;;
11039;SDS011;5573;49.592;8.662;2023-07-22T00:50:14;182.93;;;173.48;;
11039;SDS011;5573;49.592;8.662;2023-07-22T00:52:43;180.10;;;170.88;;
11039;SDS011;5573;49.592;8.662;2023-07-22T00:55:11;182.77;;;173.32;;
11039;SDS011;5573;49.592;8.662;2023-07-22T00:57:38;188.35;;;178.75;;
11039;SDS011;5573;49.592;8.662;2023-07-22T01:00:07;182.93;;;173.52;;
11039;SDS011;5573;49.592;8.662;2023-07-22T01:02:40;175.10;;;166.15;;
11039;SDS011;5573;49.592;8.662;2023-07-22T01:05:09;180.00;;;170.68;;
11039;SDS011;5573;49.592;8.662;2023-07-22T01:07:39;190.82;;;181.07;;
11039;SDS011;5573;49.592;8.662;2023-07-22T01:10:07;184.25;;;174.93;;
11039;SDS011;5573;49.592;8.662;2023-07-22T01:12:35;179.20;;;170.10;;
11039;SDS011;5573;49.592;8.662;2023-07-22T01:15:05;175.25;;;166.15;;
11039;SDS011;5573;49.592;8.662;2023-07-22T01:17:35;180.90;;;171.57;;
11039;SDS011;5573;49.592;8.662;2023-07-22T01:20:06;176.57;;;167.45;;
11039;SDS011;5573;49.592;8.662;2023-07-22T01:22:36;172.75;;;163.80;;
11039;SDS011;5573;49.592;8.662;2023-07-22T01:25:06;161.27;;;152.88;;
11039;SDS011;5573;49.592;8.662;2023-07-22T01:27:35;167.25;;;158.57;;
11039;SDS011;5573;49.592;8.662;2023-07-22T01:30:03;166.27;;;157.88;;
11039;SDS011;5573;49.592;8.662;2023-07-22T01:32:33;159.15;;;151.02;;
11039;SDS011;5573;49.592;8.662;2023-07-22T01:35:01;157.60;;;149.48;;
11039;SDS011;5573;49.592;8.662;2023-07-22T01:37:28;148.13;;;140.40;;
11039;SDS011;5573;49.592;8.662;2023-07-22T01:39:58;154.70;;;146.70;;
11039;SDS011;5573;49.592;8.662;2023-07-22T01:42:27;141.95;;;134.63;;
11039;SDS011;5573;49.592;8.662;2023-07-22T01:44:55;143.55;;;136.13;;
11039;SDS011;5573;49.592;8.662;2023-07-22T01:47:23;143.05;;;135.70;;
11039;SDS011;5573;49.592;8.662;2023-07-22T01:49:52;153.60;;;145.75;;
11039;SDS011;5573;49.592;8.662;2023-07-22T01:52:20;152.05;;;144.23;;
11039;SDS011;5573;49.592;8.662;2023-07-22T01:54:47;141.38;;;134.07;;
11039;SDS011;5573;49.592;8.662;2023-07-22T01:57:15;154.90;;;146.82;;
11039;SDS011;5573;49.592;8.662;2023-07-22T01:59:44;154.43;;;146.50;;
11039;SDS011;5573;49.592;8.662;2023-07-22T02:02:13;141.90;;;134.55;;
11039;SDS011;5573;49.592;8.662;2023-07-22T02:04:40;150.35;;;142.55;;
11039;SDS011;5573;49.592;8.662;2023-07-22T02:07:08;153.45;;;145.57;;
11039;SDS011;5573;49.592;8.662;2023-07-22T02:09:36;154.38;;;146.38;;
11039;SDS011;5573;49.592;8.662;2023-07-22T02:12:05;148.82;;;141.05;;
11039;SDS011;5573;49.592;8.662;2023-07-22T02:14:33;151.43;;;143.73;;
11039;SDS011;5573;49.592;8.662;2023-07-22T02:17:03;169.40;;;160.60;;
11039;SDS011;5573;49.592;8.662;2023-07-22T02:19:31;156.32;;;148.23;;
11039;SDS011;5573;49.592;8.662;2023-07-22T02:21:59;164.45;;;156.00;;
11039;SDS011;5573;49.592;8.662;2023-07-22T02:24:27;151.32;;;143.48;;
11039;SDS011;5573;49.592;8.662;2023-07-22T02:26:55;162.35;;;153.95;;
11039;SDS011;5573;49.592;8.662;2023-07-22T02:29:22;154.93;;;146.80;;
11039;SDS011;5573;49.592;8.662;2023-07-22T02:31:51;152.32;;;144.38;;
11039;SDS011;5573;49.592;8.662;2023-07-22T02:34:20;150.18;;;142.45;;
11039;SDS011;5573;49.592;8.662;2023-07-22T02:36:48;144.57;;;137.05;;
11039;SDS011;5573;49.592;8.662;2023-07-22T02:39:16;170.20;;;161.50;;
11039;SDS011;5573;49.592;8.662;2023-07-22T02:41:44;159.52;;;151.25;;
11039;SDS011;5573;49.592;8.662;2023-07-22T02:44:11;160.75;;;152.43;;
11039;SDS011;5573;49.592;8.662;2023-07-22T02:46:40;149.73;;;141.98;;
11039;SDS011;5573;49.592;8.662;2023-07-22T02:49:08;162.25;;;153.85;;
11039;SDS011;5573;49.592;8.662;2023-07-22T02:51:38;147.20;;;139.40;;
11039;SDS011;5573;49.592;8.662;2023-07-22T02:54:05;141.15;;;133.77;;
11039;SDS011;5573;49.592;8.662;2023-07-22T02:56:33;147.18;;;139.52;;
11039;SDS011;5573;49.592;8.662;2023-07-22T02:59:01;154.20;;;146.30;;
11039;SDS011;5573;49.592;8.662;2023-07-22T03:01:29;149.82;;;142.05;;
11039;SDS011;5573;49.592;8.662;2023-07-22T03:03:57;154.27;;;146.20;;
11039;SDS011;5573;49.592;8.662;2023-07-22T03:06:25;153.45;;;145.43;;
11039;SDS011;5573;49.592;8.662;2023-07-22T03:08:55;153.23;;;145.18;;
11039;SDS011;5573;49.592;8.662;2023-07-22T03:11:24;156.52;;;148.38;;
11039;SDS011;5573;49.592;8.662;2023-07-22T03:13:53;154.40;;;146.32;;
11039;SDS011;5573;49.592;8.662;2023-07-22T03:16:21;147.55;;;139.82;;
11039;SDS011;5573;49.592;8.662;2023-07-22T03:18:49;149.88;;;142.00;;
11039;SDS011;5573;49.592;8.662;2023-07-22T03:21:16;153.77;;;145.88;;
11039;SDS011;5573;49.592;8.662;2023-07-22T03:23:45;148.32;;;140.45;;
11039;SDS011;5573;49.592;8.662;2023-07-22T03:26:14;156.40;;;148.15;;
11039;SDS011;5573;49.592;8.662;2023-07-22T03:28:42;158.55;;;150.35;;
11039;SDS011;5573;49.592;8.662;2023-07-22T03:31:10;156.00;;;147.90;;
11039;SDS011;5573;49.592;8.662;2023-07-22T03:33:38;151.32;;;143.52;;
11039;SDS011;5573;49.592;8.662;2023-07-22T03:36:06;154.25;;;146.25;;
11039;SDS011;5573;49.592;8.662;2023-07-22T03:38:34;151.40;;;143.52;;
11039;SDS011;5573;49.592;8.662;2023-07-22T03:41:02;153.75;;;145.75;;
11039;SDS011;5573;49.592;8.662;2023-07-22T03:43:31;151.38;;;143.38;;
11039;SDS011;5573;49.592;8.662;2023-07-22T03:45:58;148.23;;;140.52;;
11039;SDS011;5573;49.592;8.662;2023-07-22T03:48:26;153.32;;;145.40;;
11039;SDS011;5573;49.592;8.662;2023-07-22T03:50:54;153.80;;;145.90;;
11039;SDS011;5573;49.592;8.662;2023-07-22T03:53:42;148.82;;;141.10;;
11039;SDS011;5573;49.592;8.662;2023-07-22T03:56:09;152.32;;;144.48;;
11039;SDS011;5573;49.592;8.662;2023-07-22T03:58:39;152.50;;;144.60;;
11039;SDS011;5573;49.592;8.662;2023-07-22T04:01:06;159.02;;;150.80;;
11039;SDS011;5573;49.592;8.662;2023-07-22T04:03:37;151.93;;;143.95;;
11039;SDS011;5573;49.592;8.662;2023-07-22T04:06:05;150.02;;;142.23;;
11039;SDS011;5573;49.592;8.662;2023-07-22T04:08:33;160.70;;;152.32;;
11039;SDS011;5573;49.592;8.662;2023-07-22T04:11:01;150.68;;;142.95;;
11039;SDS011;5573;49.592;8.662;2023-07-22T04:13:29;159.85;;;151.55;;
11039;SDS011;5573;49.592;8.662;2023-07-22T04:15:59;157.50;;;149.43;;
11039;SDS011;5573;49.592;8.662;2023-07-22T04:18:27;149.35;;;141.68;;
11039;SDS011;5573;49.592;8.662;2023-07-22T04:21:00;160.07;;;151.80;;
11039;SDS011;5573;49.592;8.662;2023-07-22T04:23:28;159.55;;;151.32;;
11039;SDS011;5573;49.592;8.662;2023-07-22T04:25:57;156.60;;;148.48;;
11039;SDS011;5573;49.592;8.662;2023-07-22T04:28:25;149.70;;;141.80;;
11039;SDS011;5573;49.592;8.662;2023-07-22T04:30:57;165.38;;;156.65;;
11039;SDS011;5573;49.592;8.662;2023-07-22T04:33:26;157.63;;;149.52;;
11039;SDS011;5573;49.592;8.662;2023-07-22T04:35:58;157.10;;;148.75;;
11039;SDS011;5573;49.592;8.662;2023-07-22T04:38:27;163.20;;;154.90;;
11039;SDS011;5573;49.592;8.662;2023-07-22T04:40:55;164.85;;;156.30;;
11039;SDS011;5573;49.592;8.662;2023-07-22T04:43:23;171.93;;;162.93;;
11039;SDS011;5573;49.592;8.662;2023-07-22T04:45:51;164.32;;;155.82;;
11039;SDS011;5573;49.592;8.662;2023-07-22T04:48:20;165.48;;;156.88;;
11039;SDS011;5573;49.592;8.662;2023-07-22T04:50:49;169.70;;;160.88;;
11039;SDS011;5573;49.592;8.662;2023-07-22T04:53:17;172.20;;;163.20;;
11039;SDS011;5573;49.592;8.662;2023-07-22T04:55:45;170.75;;;161.88;;
11039;SDS011;5573;49.592;8.662;2023-07-22T04:58:13;165.57;;;156.98;;
11039;SDS011;5573;49.592;8.662;2023-07-22T05:00:41;166.50;;;157.88;;
11039;SDS011;5573;49.592;8.662;2023-07-22T05:03:10;176.82;;;167.63;;
11039;SDS011;5573;49.592;8.662;2023-07-22T05:05:39;180.40;;;170.93;;
11039;SDS011;5573;49.592;8.662;2023-07-22T05:08:07;170.48;;;161.57;;
11039;SDS011;5573;49.592;8.662;2023-07-22T05:10:36;189.70;;;179.85;;
11039;SDS011;5573;49.592;8.662;2023-07-22T05:13:04;191.65;;;181.77;;
11039;SDS011;5573;49.592;8.662;2023-07-22T05:15:32;197.48;;;187.35;;
11039;SDS011;5573;49.592;8.662;2023-07-22T05:18:00;220.60;;;209.32;;
11039;SDS011;5573;49.592;8.662;2023-07-22T05:20:28;206.75;;;196.07;;
11039;SDS011;5573;49.592;8.662;2023-07-22T05:22:57;226.70;;;215.23;;
11039;SDS011;5573;49.592;8.662;2023-07-22T05:25:25;210.35;;;199.30;;
11039;SDS011;5573;49.592;8.662;2023-07-22T05:27:53;228.05;;;216.30;;
11039;SDS011;5573;49.592;8.662;2023-07-22T05:30:21;224.40;;;212.75;;
11039;SDS011;5573;49.592;8.662;2023-07-22T05:33:00;220.90;;;209.70;;
11039;SDS011;5573;49.592;8.662;2023-07-22T05:35:28;229.52;;;218.00;;
11039;SDS011;5573;49.592;8.662;2023-07-22T05:37:57;226.15;;;214.50;;
11039;SDS011;5573;49.592;8.662;2023-07-22T05:40:25;224.15;;;212.65;;
11039;SDS011;5573;49.592;8.662;2023-07-22T05:42:53;222.13;;;210.68;;
11039;SDS011;5573;49.592;8.662;2023-07-22T05:45:21;220.52;;;209.10;;
11039;SDS011;5573;49.592;8.662;2023-07-22T05:47:49;225.77;;;214.35;;
11039;SDS011;5573;49.592;8.662;2023-07-22T05:50:17;216.48;;;205.25;;
11039;SDS011;5573;49.592;8.662;2023-07-22T05:52:45;223.35;;;211.98;;
11039;SDS011;5573;49.592;8.662;2023-07-22T05:55:15;215.32;;;204.18;;
11039;SDS011;5573;49.592;8.662;2023-07-22T05:57:43;226.60;;;215.13;;
11039;SDS011;5573;49.592;8.662;2023-07-22T06:00:11;213.00;;;202.05;;
11039;SDS011;5573;49.592;8.662;2023-07-22T06:02:40;214.30;;;203.48;;
11039;SDS011;5573;49.592;8.662;2023-07-22T06:05:08;211.75;;;201.02;;
11039;SDS011;5573;49.592;8.662;2023-07-22T06:07:36;202.25;;;192.02;;
11039;SDS011;5573;49.592;8.662;2023-07-22T06:10:04;202.68;;;192.38;;
11039;SDS011;5573;49.592;8.662;2023-07-22T06:12:35;214.98;;;204.00;;
11039;SDS011;5573;49.592;8.662;2023-07-22T06:15:03;206.00;;;195.35;;
11039;SDS011;5573;49.592;8.662;2023-07-22T06:17:31;196.02;;;185.88;;
11039;SDS011;5573;49.592;8.662;2023-07-22T06:19:59;181.07;;;171.63;;
11039;SDS011;5573;49.592;8.662;2023-07-22T06:22:27;170.95;;;161.90;;
11039;SDS011;5573;49.592;8.662;2023-07-22T06:24:55;194.45;;;184.38;;
11039;SDS011;5573;49.592;8.662;2023-07-22T06:27:23;187.65;;;178.02;;
11039;SDS011;5573;49.592;8.662;2023-07-22T06:29:52;196.38;;;186.45;;
11039;SDS011;5573;49.592;8.662;2023-07-22T06:32:19;198.82;;;188.80;;
11039;SDS011;5573;49.592;8.662;2023-07-22T06:34:48;209.25;;;198.65;;
11039;SDS011;5573;49.592;8.662;2023-07-22T06:37:16;198.90;;;188.73;;
11039;SDS011;5573;49.592;8.662;2023-07-22T06:39:44;208.45;;;197.90;;
11039;SDS011;5573;49.592;8.662;2023-07-22T06:42:11;200.52;;;190.25;;
11039;SDS011;5573;49.592;8.662;2023-07-22T06:44:39;196.55;;;186.40;;
11039;SDS011;5573;49.592;8.662;2023-07-22T06:47:08;175.00;;;165.82;;
11039;SDS011;5573;49.592;8.662;2023-07-22T06:49:36;171.68;;;162.77;;
11039;SDS011;5573;49.592;8.662;2023-07-22T06:52:05;179.18;;;169.80;;
11039;SDS011;5573;49.592;8.662;2023-07-22T06:54:34;169.10;;;160.27;;
11039;SDS011;5573;49.592;8.662;2023-07-22T06:57:02;157.55;;;149.27;;
11039;SDS011;5573;49.592;8.662;2023-07-22T06:59:32;151.93;;;143.88;;
11039;SDS011;5573;49.592;8.662;2023-07-22T07:02:00;163.00;;;154.52;;
11039;SDS011;5573;49.592;8.662;2023-07-22T07:04:29;155.93;;;147.68;;
11039;SDS011;5573;49.592;8.662;2023-07-22T07:06:57;156.98;;;148.77;;
11039;SDS011;5573;49.592;8.662;2023-07-22T07:09:25;152.38;;;144.55;;
11039;SDS011;5573;49.592;8.662;2023-07-22T07:11:53;156.65;;;148.60;;
11039;SDS011;5573;49.592;8.662;2023-07-22T07:14:23;152.45;;;144.48;;
11039;SDS011;5573;49.592;8.662;2023-07-22T07:16:51;155.73;;;147.48;;
11039;SDS011;5573;49.592;8.662;2023-07-22T07:19:19;153.88;;;145.68;;
11039;SDS011;5573;49.592;8.662;2023-07-22T07:21:48;150.50;;;142.75;;
11039;SDS011;5573;49.592;8.662;2023-07-22T07:24:16;156.25;;;148.15;;
11039;SDS011;5573;49.592;8.662;2023-07-22T07:26:44;157.27;;;149.00;;
11039;SDS011;5573;49.592;8.662;2023-07-22T07:29:13;159.95;;;151.60;;
11039;SDS011;5573;49.592;8.662;2023-07-22T07:31:54;151.93;;;143.82;;
11039;SDS011;5573;49.592;8.662;2023-07-22T07:34:22;149.70;;;141.88;;
11039;SDS011;5573;49.592;8.662;2023-07-22T07:36:51;143.80;;;136.30;;
11039;SDS011;5573;49.592;8.662;2023-07-22T07:39:19;146.52;;;138.93;;
11039;SDS011;5573;49.592;8.662;2023-07-22T07:41:46;144.80;;;137.32;;
11039;SDS011;5573;49.592;8.662;2023-07-22T07:44:14;157.88;;;149.70;;
11039;SDS011;5573;49.592;8.662;2023-07-22T07:46:42;144.23;;;136.73;;
11039;SDS011;5573;49.592;8.662;2023-07-22T07:49:10;153.10;;;145.18;;
11039;SDS011;5573;49.592;8.662;2023-07-22T07:51:38;151.98;;;144.18;;
11039;SDS011;5573;49.592;8.662;2023-07-22T07:54:07;139.93;;;132.75;;
11039;SDS011;5573;49.592;8.662;2023-07-22T07:56:35;138.32;;;131.10;;
11039;SDS011;5573;49.592;8.662;2023-07-22T07:59:03;148.32;;;140.68;;
11039;SDS011;5573;49.592;8.662;2023-07-22T08:01:35;149.23;;;141.50;;
11039;SDS011;5573;49.592;8.662;2023-07-22T08:04:04;142.90;;;135.50;;
11039;SDS011;5573;49.592;8.662;2023-07-22T08:06:31;157.77;;;149.65;;
11039;SDS011;5573;49.592;8.662;2023-07-22T08:08:59;146.25;;;138.65;;
11039;SDS011;5573;49.592;8.662;2023-07-22T08:11:28;147.82;;;140.30;;
11039;SDS011;5573;49.592;8.662;2023-07-22T08:13:56;152.27;;;144.48;;
11039;SDS011;5573;49.592;8.662;2023-07-22T08:16:24;153.60;;;145.80;;
11039;SDS011;5573;49.592;8.662;2023-07-22T08:18:52;176.02;;;167.23;;
11039;SDS011;5573;49.592;8.662;2023-07-22T08:21:20;178.88;;;169.85;;
11039;SDS011;5573;49.592;8.662;2023-07-22T08:23:48;183.75;;;174.57;;
11039;SDS011;5573;49.592;8.662;2023-07-22T08:26:16;195.63;;;185.85;;
11039;SDS011;5573;49.592;8.662;2023-07-22T08:28:48;186.45;;;177.05;;
11039;SDS011;5573;49.592;8.662;2023-07-22T08:31:16;190.93;;;181.20;;
11039;SDS011;5573;49.592;8.662;2023-07-22T08:33:44;180.20;;;171.05;;
11039;SDS011;5573;49.592;8.662;2023-07-22T08:36:12;180.65;;;171.48;;
11039;SDS011;5573;49.592;8.662;2023-07-22T08:38:40;184.93;;;175.48;;
11039;SDS011;5573;49.592;8.662;2023-07-22T08:41:07;180.05;;;170.98;;
11039;SDS011;5573;49.592;8.662;2023-07-22T08:43:36;173.27;;;164.40;;
11039;SDS011;5573;49.592;8.662;2023-07-22T08:46:10;186.23;;;176.90;;
11039;SDS011;5573;49.592;8.662;2023-07-22T08:48:40;192.60;;;182.95;;
11039;SDS011;5573;49.592;8.662;2023-07-22T08:51:10;181.18;;;171.98;;
11039;SDS011;5573;49.592;8.662;2023-07-22T08:53:42;199.13;;;189.18;;
11039;SDS011;5573;49.592;8.662;2023-07-22T08:56:18;177.88;;;168.82;;
11039;SDS011;5573;49.592;8.662;2023-07-22T08:58:46;178.88;;;169.82;;
11039;SDS011;5573;49.592;8.662;2023-07-22T09:01:18;184.35;;;174.98;;
11039;SDS011;5573;49.592;8.662;2023-07-22T09:03:46;181.43;;;172.25;;
11039;SDS011;5573;49.592;8.662;2023-07-22T09:06:17;199.13;;;189.05;;
11039;SDS011;5573;49.592;8.662;2023-07-22T09:08:45;183.13;;;173.85;;
11039;SDS011;5573;49.592;8.662;2023-07-22T09:11:13;189.07;;;179.60;;
11039;SDS011;5573;49.592;8.662;2023-07-22T09:13:41;180.60;;;171.38;;
11039;SDS011;5573;49.592;8.662;2023-07-22T09:16:12;187.00;;;177.48;;
11039;SDS011;5573;49.592;8.662;2023-07-22T09:18:42;179.32;;;170.27;;
11039;SDS011;5573;49.592;8.662;2023-07-22T09:21:10;181.23;;;172.20;;
11039;SDS011;5573;49.592;8.662;2023-07-22T09:23:38;189.23;;;179.68;;
11039;SDS011;5573;49.592;8.662;2023-07-22T09:26:09;183.15;;;173.82;;
11039;SDS011;5573;49.592;8.662;2023-07-22T09:28:48;205.63;;;195.32;;
11039;SDS011;5573;49.592;8.662;2023-07-22T09:31:17;184.18;;;174.80;;
11039;SDS011;5573;49.592;8.662;2023-07-22T09:33:47;198.20;;;188.30;;
11039;SDS011;5573;49.592;8.662;2023-07-22T09:36:15;210.02;;;199.52;;
11039;SDS011;5573;49.592;8.662;2023-07-22T09:38:44;207.50;;;196.80;;
11039;SDS011;5573;49.592;8.662;2023-07-22T09:41:12;205.93;;;195.23;;
11039;SDS011;5573;49.592;8.662;2023-07-22T09:43:40;199.45;;;189.30;;
11039;SDS011;5573;49.592;8.662;2023-07-22T09:46:08;184.18;;;174.65;;
11039;SDS011;5573;49.592;8.662;2023-07-22T09:48:40;188.40;;;178.57;;
11039;SDS011;5573;49.592;8.662;2023-07-22T09:51:14;186.32;;;176.77;;
11039;SDS011;5573;49.592;8.662;2023-07-22T09:53:46;183.73;;;174.20;;
11039;SDS011;5573;49.592;8.662;2023-07-22T09:56:14;176.23;;;167.10;;
11039;SDS011;5573;49.592;8.662;2023-07-22T09:58:42;175.27;;;166.02;;
11039;SDS011;5573;49.592;8.662;2023-07-22T10:01:13;185.10;;;175.40;;
11039;SDS011;5573;49.592;8.662;2023-07-22T10:03:45;187.38;;;177.45;;
11039;SDS011;5573;49.592;8.662;2023-07-22T10:06:23;206.65;;;196.02;;
11039;SDS011;5573;49.592;8.662;2023-07-22T10:08:51;211.20;;;200.05;;
11039;SDS011;5573;49.592;8.662;2023-07-22T10:11:20;222.27;;;210.85;;
11039;SDS011;5573;49.592;8.662;2023-07-22T10:13:49;232.15;;;220.18;;
11039;SDS011;5573;49.592;8.662;2023-07-22T10:16:18;229.05;;;217.20;;
11039;SDS011;5573;49.592;8.662;2023-07-22T10:18:46;246.90;;;234.13;;
11039;SDS011;5573;49.592;8.662;2023-07-22T10:21:15;228.00;;;216.20;;
11039;SDS011;5573;49.592;8.662;2023-07-22T10:23:46;232.95;;;220.73;;
11039;SDS011;5573;49.592;8.662;2023-07-22T10:26:15;229.23;;;217.38;;
11039;SDS011;5573;49.592;8.662;2023-07-22T10:28:54;228.98;;;217.15;;
11039;SDS011;5573;49.592;8.662;2023-07-22T10:31:24;231.43;;;219.43;;
11039;SDS011;5573;49.592;8.662;2023-07-22T10:33:52;217.32;;;206.18;;
11039;SDS011;5573;49.592;8.662;2023-07-22T10:36:21;226.50;;;214.80;;
11039;SDS011;5573;49.592;8.662;2023-07-22T10:38:57;222.70;;;211.20;;
11039;SDS011;5573;49.592;8.662;2023-07-22T10:41:29;246.63;;;234.15;;
11039;SDS011;5573;49.592;8.662;2023-07-22T10:43:58;224.98;;;213.23;;
11039;SDS011;5573;49.592;8.662;2023-07-22T10:46:31;224.07;;;212.60;;
11039;SDS011;5573;49.592;8.662;2023-07-22T10:49:07;214.25;;;203.35;;
11039;SDS011;5573;49.592;8.662;2023-07-22T10:51:38;239.63;;;227.15;;
11039;SDS011;5573;49.592;8.662;2023-07-22T10:54:13;242.30;;;229.80;;
11039;SDS011;5573;49.592;8.662;2023-07-22T10:56:42;249.57;;;236.73;;
11039;SDS011;5573;49.592;8.662;2023-07-22T10:59:11;243.73;;;231.27;;
11039;SDS011;5573;49.592;8.662;2023-07-22T11:01:39;233.68;;;221.77;;
11039;SDS011;5573;49.592;8.662;2023-07-22T11:04:11;230.85;;;219.20;;
11039;SDS011;5573;49.592;8.662;2023-07-22T11:06:53;225.73;;;214.38;;
11039;SDS011;5573;49.592;8.662;2023-07-22T11:09:39;234.98;;;223.15;;
11039;SDS011;5573;49.592;8.662;2023-07-22T11:12:13;243.60;;;231.23;;
11039;SDS011;5573;49.592;8.662;2023-07-22T11:14:47;214.60;;;203.52;;
11039;SDS011;5573;49.592;8.662;2023-07-22T11:17:17;242.10;;;229.90;;
11039;SDS011;5573;49.592;8.662;2023-07-22T11:19:45;247.00;;;234.30;;
11039;SDS011;5573;49.592;8.662;2023-07-22T11:22:15;242.68;;;230.40;;
11039;SDS011;5573;49.592;8.662;2023-07-22T11:24:45;245.80;;;233.45;;
11039;SDS011;5573;49.592;8.662;2023-07-22T11:27:13;244.30;;;231.80;;
11039;SDS011;5573;49.592;8.662;2023-07-22T11:29:41;244.18;;;231.70;;
11039;SDS011;5573;49.592;8.662;2023-07-22T11:32:14;224.07;;;212.55;;
11039;SDS011;5573;49.592;8.662;2023-07-22T11:34:43;245.40;;;232.82;;
11039;SDS011;5573;49.592;8.662;2023-07-22T11:37:12;235.02;;;223.07;;
11039;SDS011;5573;49.592;8.662;2023-07-22T11:39:41;250.82;;;238.10;;
11039;SDS011;5573;49.592;8.662;2023-07-22T11:42:11;254.85;;;241.88;;
11039;SDS011;5573;49.592;8.662;2023-07-22T11:44:39;259.45;;;246.18;;
11039;SDS011;5573;49.592;8.662;2023-07-22T11:47:07;265.35;;;251.95;;
11039;SDS011;5573;49.592;8.662;2023-07-22T11:49:35;243.38;;;231.02;;
11039;SDS011;5573;49.592;8.662;2023-07-22T11:52:05;259.17;;;246.20;;
11039;SDS011;5573;49.592;8.662;2023-07-22T11:54:35;280.15;;;266.15;;
11039;SDS011;5573;49.592;8.662;2023-07-22T11:57:12;280.52;;;266.23;;
11039;SDS011;5573;49.592;8.662;2023-07-22T11:59:43;274.08;;;259.88;;
11039;SDS011;5573;49.592;8.662;2023-07-22T12:02:12;286.20;;;271.27;;
11039;SDS011;5573;49.592;8.662;2023-07-22T12:04:40;291.92;;;276.98;;
11039;SDS011;5573;49.592;8.662;2023-07-22T12:07:21;292.40;;;277.35;;
11039;SDS011;5573;49.592;8.662;2023-07-22T12:09:49;279.05;;;264.75;;
11039;SDS011;5573;49.592;8.662;2023-07-22T12:12:20;278.05;;;263.70;;
11039;SDS011;5573;49.592;8.662;2023-07-22T12:14:48;266.55;;;252.98;;
11039;SDS011;5573;49.592;8.662;2023-07-22T12:17:16;251.38;;;238.57;;
11039;SDS011;5573;49.592;8.662;2023-07-22T12:19:51;239.32;;;227.10;;
11039;SDS011;5573;49.592;8.662;2023-07-22T12:22:21;228.00;;;216.43;;
11039;SDS011;5573;49.592;8.662;2023-07-22T12:24:49;235.35;;;223.35;;
11039;SDS011;5573;49.592;8.662;2023-07-22T12:27:16;243.10;;;230.70;;
11039;SDS011;5573;49.592;8.662;2023-07-22T12:29:46;232.00;;;220.00;;
11039;SDS011;5573;49.592;8.662;2023-07-22T12:32:13;236.95;;;224.68;;
11039;SDS011;5573;49.592;8.662;2023-07-22T12:34:41;247.52;;;235.05;;
11039;SDS011;5573;49.592;8.662;2023-07-22T12:37:09;247.25;;;234.50;;
11039;SDS011;5573;49.592;8.662;2023-07-22T12:39:37;276.50;;;262.42;;
11039;SDS011;5573;49.592;8.662;2023-07-22T12:42:05;277.85;;;263.67;;
11039;SDS011;5573;49.592;8.662;2023-07-22T12:44:33;297.20;;;282.23;;
11039;SDS011;5573;49.592;8.662;2023-07-22T12:47:02;285.65;;;271.13;;
11039;SDS011;5573;49.592;8.662;2023-07-22T12:49:30;276.27;;;262.13;;
11039;SDS011;5573;49.592;8.662;2023-07-22T12:51:57;285.20;;;270.70;;
11039;SDS011;5573;49.592;8.662;2023-07-22T12:54:30;275.60;;;261.55;;
11039;SDS011;5573;49.592;8.662;2023-07-22T12:56:58;291.85;;;276.83;;
11039;SDS011;5573;49.592;8.662;2023-07-22T12:59:26;291.10;;;276.17;;
11039;SDS011;5573;49.592;8.662;2023-07-22T13:01:53;279.85;;;265.58;;
11039;SDS011;5573;49.592;8.662;2023-07-22T13:04:23;298.45;;;283.10;;
11039;SDS011;5573;49.592;8.662;2023-07-22T13:06:51;285.90;;;271.45;;
11039;SDS011;5573;49.592;8.662;2023-07-22T13:09:19;279.23;;;265.05;;
11039;SDS011;5573;49.592;8.662;2023-07-22T13:11:47;285.92;;;271.55;;
11039;SDS011;5573;49.592;8.662;2023-07-22T13:14:15;273.73;;;259.77;;
11039;SDS011;5573;49.592;8.662;2023-07-22T13:16:44;284.98;;;270.55;;
11039;SDS011;5573;49.592;8.662;2023-07-22T13:19:12;281.70;;;267.40;;
11039;SDS011;5573;49.592;8.662;2023-07-22T13:24:35;275.90;;;261.88;;
11039;SDS011;5573;49.592;8.662;2023-07-22T13:27:03;265.55;;;252.05;;
11039;SDS011;5573;49.592;8.662;2023-07-22T13:29:32;283.02;;;268.63;;
11039;SDS011;5573;49.592;8.662;2023-07-22T13:31:59;280.35;;;266.10;;
11039;SDS011;5573;49.592;8.662;2023-07-22T13:34:27;286.65;;;272.20;;
11039;SDS011;5573;49.592;8.662;2023-07-22T13:36:55;272.75;;;258.92;;
11039;SDS011;5573;49.592;8.662;2023-07-22T13:39:24;287.67;;;273.15;;
11039;SDS011;5573;49.592;8.662;2023-07-22T13:41:52;297.23;;;281.92;;
11039;SDS011;5573;49.592;8.662;2023-07-22T13:44:19;285.88;;;271.25;;
11039;SDS011;5573;49.592;8.662;2023-07-22T13:46:47;278.20;;;264.13;;
11039;SDS011;5573;49.592;8.662;2023-07-22T13:49:15;281.77;;;267.33;;
11039;SDS011;5573;49.592;8.662;2023-07-22T13:51:44;251.90;;;239.00;;
11039;SDS011;5573;49.592;8.662;2023-07-22T13:54:11;241.77;;;229.45;;
11039;SDS011;5573;49.592;8.662;2023-07-22T13:56:41;246.50;;;233.95;;
11039;SDS011;5573;49.592;8.662;2023-07-22T13:59:09;223.82;;;212.40;;
11039;SDS011;5573;49.592;8.662;2023-07-22T14:01:37;229.18;;;217.57;;
11039;SDS011;5573;49.592;8.662;2023-07-22T14:04:05;240.70;;;228.38;;
11039;SDS011;5573;49.592;8.662;2023-07-22T14:06:33;234.52;;;222.57;;
11039;SDS011;5573;49.592;8.662;2023-07-22T14:09:01;233.48;;;221.57;;
11039;SDS011;5573;49.592;8.662;2023-07-22T14:11:30;225.52;;;213.95;;
11039;SDS011;5573;49.592;8.662;2023-07-22T14:13:59;225.75;;;214.23;;
11039;SDS011;5573;49.592;8.662;2023-07-22T14:16:27;228.25;;;216.55;;
11039;SDS011;5573;49.592;8.662;2023-07-22T14:18:54;229.18;;;217.40;;
11039;SDS011;5573;49.592;8.662;2023-07-22T14:21:22;229.13;;;217.48;;